createdAt,value
2019-04-14T00:02:40.456Z,99.90
2019-04-14T00:05:47.274Z,99.90
2019-04-14T00:08:52.298Z,99.90
2019-04-14T00:11:56.971Z,99.90
2019-04-14T00:15:02.506Z,99.90
2019-04-14T00:18:07.550Z,99.90
2019-04-14T00:21:12.936Z,99.90
2019-04-14T00:24:18.427Z,99.90
2019-04-14T00:27:23.659Z,99.90
2019-04-14T00:30:29.484Z,99.90
2019-04-14T00:33:34.524Z,99.90
2019-04-14T00:36:52.530Z,99.90
2019-04-14T00:40:01.973Z,99.90
2019-04-14T00:43:26.707Z,99.90
2019-04-14T00:46:38.950Z,99.90
2019-04-14T00:49:44.060Z,99.90
2019-04-14T00:52:48.793Z,99.90
2019-04-14T00:55:53.399Z,99.90
2019-04-14T00:58:58.271Z,99.90
2019-04-14T01:02:03.447Z,99.90
2019-04-14T01:05:08.956Z,99.90
2019-04-14T01:08:14.149Z,99.90
2019-04-14T01:11:18.673Z,99.90
2019-04-14T01:14:23.439Z,99.90
2019-04-14T01:17:28.680Z,99.90
2019-04-14T01:20:34.335Z,99.90
2019-04-14T01:23:39.202Z,99.90
2019-04-14T01:26:44.276Z,99.90
2019-04-14T01:29:49.527Z,99.90
2019-04-14T01:32:54.416Z,99.90
2019-04-14T01:35:59.613Z,99.90
2019-04-14T01:39:06.842Z,99.90
2019-04-14T01:42:11.746Z,99.90
2019-04-14T01:45:18.590Z,99.90
2019-04-14T01:48:23.569Z,99.90
2019-04-14T01:51:33.126Z,99.90
2019-04-14T01:54:56.068Z,99.90
2019-04-14T01:58:12.118Z,99.90
2019-04-14T02:01:17.081Z,99.90
2019-04-14T02:04:22.411Z,99.90
2019-04-14T02:07:27.639Z,99.90
2019-04-14T02:10:32.634Z,99.90
2019-04-14T02:13:37.558Z,99.90
2019-04-14T02:16:49.818Z,99.90
2019-04-14T02:19:48.246Z,99.90
2019-04-14T02:22:53.410Z,99.90
2019-04-14T02:25:58.096Z,99.90
2019-04-14T02:29:03.613Z,99.90
2019-04-14T02:32:34.776Z,99.90
2019-04-14T02:35:47.147Z,99.90
2019-04-14T02:42:07.087Z,99.90
2019-04-14T02:44:59.885Z,99.90
2019-04-14T02:48:14.611Z,99.90
2019-04-14T02:51:14.443Z,99.90
2019-04-14T02:54:22.850Z,99.90
2019-04-14T02:57:26.840Z,99.90
2019-04-14T03:03:43.470Z,99.90
2019-04-14T03:06:50.162Z,99.90
2019-04-14T03:13:09.333Z,99.90
2019-04-14T03:19:14.378Z,99.90
2019-04-14T03:22:28.830Z,99.90
2019-04-14T03:25:26.364Z,99.90
2019-04-14T03:28:38.445Z,99.90
2019-04-14T03:32:14.974Z,99.90
2019-04-14T03:38:18.475Z,99.90
2019-04-14T03:41:14.345Z,99.90
2019-04-14T03:44:11.821Z,99.90
2019-04-14T03:47:19.622Z,99.90
2019-04-14T03:50:33.763Z,99.90
2019-04-14T03:53:26.265Z,99.90
2019-04-14T03:56:16.496Z,99.90
2019-04-14T03:59:21.902Z,99.90
2019-04-14T04:02:27.204Z,99.90
2019-04-14T04:05:32.407Z,99.90
2019-04-14T04:08:37.714Z,99.90
2019-04-14T04:11:43.307Z,99.90
2019-04-14T04:14:48.554Z,99.90
2019-04-14T04:18:03.434Z,99.90
2019-04-14T04:21:12.302Z,99.90
2019-04-14T04:24:36.953Z,99.90
2019-04-14T04:27:44.039Z,99.90
2019-04-14T04:31:02.411Z,99.90
2019-04-14T04:34:09.892Z,99.90
2019-04-14T04:37:23.512Z,99.90
2019-04-14T04:40:29.785Z,99.90
2019-04-14T04:43:36.526Z,99.90
2019-04-14T04:46:41.595Z,99.90
2019-04-14T04:49:46.887Z,99.90
2019-04-14T04:52:51.833Z,99.90
2019-04-14T04:55:56.787Z,99.90
2019-04-14T04:59:01.621Z,99.90
2019-04-14T05:02:07.029Z,99.90
2019-04-14T05:06:06.846Z,99.90
2019-04-14T05:09:14.414Z,99.90
2019-04-14T05:12:32.840Z,99.90
2019-04-14T05:15:40.119Z,99.90
2019-04-14T05:18:44.844Z,99.90
2019-04-14T05:21:49.590Z,99.90
2019-04-14T05:24:55.000Z,99.90
2019-04-14T05:28:00.430Z,99.90
2019-04-14T05:31:05.504Z,99.90
2019-04-14T05:34:11.177Z,99.90
2019-04-14T05:37:16.101Z,99.90
2019-04-14T05:40:21.073Z,99.90
2019-04-14T05:43:37.011Z,99.90
2019-04-14T05:46:32.141Z,99.90
2019-04-14T05:49:44.314Z,99.90
2019-04-14T05:52:44.638Z,99.90
2019-04-14T05:55:50.308Z,99.90
2019-04-14T05:58:55.767Z,99.90
2019-04-14T06:02:00.262Z,99.90
2019-04-14T06:05:06.427Z,99.90
2019-04-14T06:08:11.159Z,99.90
2019-04-14T06:11:15.599Z,99.90
2019-04-14T06:14:20.036Z,99.90
2019-04-14T06:17:24.777Z,99.90
2019-04-14T06:20:29.208Z,99.90
2019-04-14T06:23:33.647Z,99.90
2019-04-14T06:26:38.088Z,99.90
2019-04-14T06:29:42.781Z,99.90
2019-04-14T06:32:48.496Z,99.90
2019-04-14T06:36:12.628Z,99.90
2019-04-14T06:39:24.453Z,99.90
2019-04-14T06:42:28.892Z,99.90
2019-04-14T06:45:33.323Z,99.90
2019-04-14T06:48:37.762Z,99.90
2019-04-14T06:51:42.822Z,99.90
2019-04-14T06:54:47.249Z,99.90
2019-04-14T06:57:51.692Z,99.90
2019-04-14T07:00:56.398Z,99.90
2019-04-14T07:04:00.835Z,99.90
2019-04-14T07:07:05.275Z,99.90
2019-04-14T07:10:09.777Z,99.90
2019-04-14T07:13:14.504Z,99.90
2019-04-14T07:16:19.240Z,99.90
2019-04-14T07:19:23.675Z,99.90
2019-04-14T07:22:28.118Z,99.90
2019-04-14T07:25:32.548Z,99.90
2019-04-14T07:28:37.233Z,99.90
2019-04-14T07:31:58.598Z,99.90
2019-04-14T07:35:17.502Z,99.90
2019-04-14T07:38:23.582Z,99.90
2019-04-14T07:41:38.102Z,99.90
2019-04-14T07:45:00.695Z,99.90
2019-04-14T07:48:06.843Z,99.90
2019-04-14T07:51:29.304Z,99.90
2019-04-14T07:54:47.668Z,99.90
2019-04-14T07:58:05.532Z,99.90
2019-04-14T08:01:17.511Z,99.90
2019-04-14T08:04:32.674Z,99.90
2019-04-14T08:07:38.832Z,99.90
2019-04-14T08:10:43.565Z,99.90
2019-04-14T08:13:48.012Z,99.90
2019-04-14T08:16:52.448Z,99.90
2019-04-14T08:19:57.242Z,99.90
2019-04-14T08:23:01.700Z,99.90
2019-04-14T08:26:06.126Z,99.90
2019-04-14T08:29:10.573Z,99.90
2019-04-14T08:32:15.005Z,99.90
2019-04-14T08:35:19.434Z,99.90
2019-04-14T08:38:24.233Z,99.90
2019-04-14T08:41:30.267Z,99.90
2019-04-14T08:44:39.453Z,99.90
2019-04-14T08:47:46.938Z,99.90
2019-04-14T08:51:01.988Z,99.70
2019-04-14T08:54:24.817Z,99.90
2019-04-14T08:57:49.513Z,99.90
2019-04-14T09:00:58.271Z,99.90
2019-04-14T09:04:09.973Z,99.90
2019-04-14T09:07:21.786Z,99.90
2019-04-14T09:10:27.886Z,99.90
2019-04-14T09:13:32.324Z,99.90
2019-04-14T09:16:36.762Z,99.90
2019-04-14T09:19:41.471Z,99.90
2019-04-14T09:22:45.910Z,99.90
2019-04-14T09:25:50.624Z,99.90
2019-04-14T09:28:55.075Z,99.60
2019-04-14T09:31:59.987Z,99.30
2019-04-14T09:35:05.770Z,99.50
2019-04-14T09:38:10.205Z,99.30
2019-04-14T09:41:14.638Z,99.30
2019-04-14T09:44:19.124Z,98.80
2019-04-14T09:47:23.528Z,98.90
2019-04-14T09:50:27.966Z,99.40
2019-04-14T09:53:32.399Z,98.50
2019-04-14T09:56:36.842Z,98.30
2019-04-14T09:59:41.641Z,98.30
2019-04-14T10:02:46.096Z,98.70
2019-04-14T10:05:50.569Z,98.30
2019-04-14T10:08:55.016Z,97.70
2019-04-14T10:11:59.534Z,97.30
2019-04-14T10:15:04.627Z,96.70
2019-04-14T10:18:09.059Z,97.00
2019-04-14T10:21:17.498Z,97.20
2019-04-14T10:24:19.676Z,97.00
2019-04-14T10:27:24.422Z,95.30
2019-04-14T10:30:28.875Z,95.80
2019-04-14T10:33:33.677Z,95.00
2019-04-14T10:36:38.414Z,96.00
2019-04-14T10:39:42.865Z,95.40
2019-04-14T10:42:47.331Z,95.10
2019-04-14T10:45:51.799Z,95.30
2019-04-14T10:48:56.243Z,95.30
2019-04-14T10:52:00.699Z,96.40
2019-04-14T10:55:07.369Z,95.90
2019-04-14T10:58:11.808Z,95.60
2019-04-14T11:01:16.258Z,95.40
2019-04-14T11:04:20.987Z,94.90
2019-04-14T11:07:27.091Z,94.80
2019-04-14T11:10:31.781Z,94.10
2019-04-14T11:13:36.218Z,92.70
2019-04-14T11:16:40.931Z,94.30
2019-04-14T11:19:45.371Z,93.60
2019-04-14T11:23:02.496Z,93.00
2019-04-14T11:25:56.248Z,93.50
2019-04-14T11:29:00.687Z,94.60
2019-04-14T11:32:04.902Z,94.10
2019-04-14T11:35:19.662Z,94.00
2019-04-14T11:38:25.742Z,92.00
2019-04-14T11:41:30.193Z,92.50
2019-04-14T11:44:34.637Z,92.90
2019-04-14T11:47:39.080Z,94.20
2019-04-14T11:50:43.529Z,93.30
2019-04-14T11:53:47.973Z,93.40
2019-04-14T11:56:53.082Z,93.30
2019-04-14T12:00:12.330Z,93.50
2019-04-14T12:03:21.079Z,92.30
2019-04-14T12:06:33.994Z,92.50
2019-04-14T12:09:43.116Z,92.50
2019-04-14T12:12:47.862Z,92.40
2019-04-14T12:15:52.312Z,92.20
2019-04-14T12:18:57.018Z,91.00
2019-04-14T12:22:08.075Z,90.20
2019-04-14T12:25:07.765Z,90.30
2019-04-14T12:28:13.368Z,90.50
2019-04-14T12:31:18.092Z,91.40
2019-04-14T12:34:22.528Z,91.00
2019-04-14T12:37:27.046Z,90.80
2019-04-14T12:40:31.485Z,90.90
2019-04-14T12:43:37.839Z,90.30
2019-04-14T12:46:46.612Z,87.70
2019-04-14T12:49:55.591Z,88.30
2019-04-14T12:53:00.113Z,85.90
2019-04-14T12:56:04.556Z,85.00
2019-04-14T12:59:08.772Z,83.90
2019-04-14T13:02:21.092Z,83.50
2019-04-14T13:05:25.535Z,79.30
2019-04-14T13:08:29.986Z,81.80
2019-04-14T13:11:34.439Z,82.70
2019-04-14T13:14:39.172Z,81.70
2019-04-14T13:17:43.617Z,81.00
2019-04-14T13:20:48.324Z,80.90
2019-04-14T13:23:53.055Z,81.80
2019-04-14T13:26:57.504Z,81.40
2019-04-14T13:30:02.017Z,80.30
2019-04-14T13:33:06.540Z,80.90
2019-04-14T13:36:11.003Z,80.50
2019-04-14T13:39:15.434Z,79.60
2019-04-14T13:42:19.956Z,79.10
2019-04-14T13:45:24.395Z,81.70
2019-04-14T13:48:28.846Z,80.80
2019-04-14T13:51:33.286Z,78.40
2019-04-14T13:54:37.733Z,76.00
2019-04-14T13:57:42.433Z,76.10
2019-04-14T14:00:47.039Z,80.60
2019-04-14T14:03:51.489Z,81.50
2019-04-14T14:06:56.213Z,78.10
2019-04-14T14:10:00.663Z,78.60
2019-04-14T14:13:22.878Z,82.00
2019-04-14T14:16:34.492Z,82.50
2019-04-14T14:19:40.841Z,79.80
2019-04-14T14:23:02.952Z,80.50
2019-04-14T14:26:15.005Z,80.40
2019-04-14T14:29:19.454Z,77.70
2019-04-14T14:32:28.694Z,79.30
2019-04-14T14:35:33.138Z,78.80
2019-04-14T14:38:37.903Z,79.60
2019-04-14T14:41:42.343Z,78.10
2019-04-14T14:44:57.079Z,76.80
2019-04-14T14:48:16.077Z,79.10
2019-04-14T14:51:27.977Z,76.30
2019-04-14T14:54:32.424Z,76.00
2019-04-14T14:57:36.882Z,75.50
2019-04-14T15:00:41.593Z,77.10
2019-04-14T15:03:46.048Z,78.10
2019-04-14T15:06:50.503Z,77.50
2019-04-14T15:09:55.160Z,76.70
2019-04-14T15:12:59.619Z,75.50
2019-04-14T15:16:04.135Z,74.40
2019-04-14T15:19:08.591Z,75.60
2019-04-14T15:22:13.315Z,76.00
2019-04-14T15:25:18.042Z,74.70
2019-04-14T15:28:22.501Z,74.60
2019-04-14T15:31:26.942Z,76.80
2019-04-14T15:34:31.389Z,80.60
2019-04-14T15:37:35.832Z,78.90
2019-04-14T15:40:40.280Z,78.50
2019-04-14T15:43:44.733Z,78.50
2019-04-14T15:46:49.175Z,78.00
2019-04-14T15:49:53.940Z,77.90
2019-04-14T15:52:58.383Z,80.10
2019-04-14T15:56:03.201Z,79.50
2019-04-14T15:59:12.050Z,80.10
2019-04-14T16:02:18.142Z,79.50
2019-04-14T16:05:30.166Z,79.60
2019-04-14T16:08:45.254Z,78.90
2019-04-14T16:12:07.173Z,77.60
2019-04-14T16:15:29.759Z,79.50
2019-04-14T16:18:51.174Z,80.50
2019-04-14T16:21:55.684Z,79.10
2019-04-14T16:25:00.200Z,78.80
2019-04-14T16:28:08.934Z,80.10
2019-04-14T16:31:30.751Z,79.00
2019-04-14T16:34:39.528Z,80.10
2019-04-14T16:37:43.965Z,79.00
2019-04-14T16:40:48.420Z,79.20
2019-04-14T16:43:52.860Z,81.00
2019-04-14T16:46:57.305Z,81.00
2019-04-14T16:50:01.753Z,80.60
2019-04-14T16:53:13.488Z,80.80
2019-04-14T16:56:19.573Z,80.90
2019-04-14T16:59:24.329Z,81.00
2019-04-14T17:02:28.792Z,80.90
2019-04-14T17:05:34.862Z,80.80
2019-04-14T17:08:39.739Z,81.60
2019-04-14T17:11:44.186Z,81.00
2019-04-14T17:14:50.262Z,82.70
2019-04-14T17:18:12.534Z,82.60
2019-04-14T17:21:31.999Z,82.70
2019-04-14T17:24:38.143Z,84.00
2019-04-14T17:27:48.299Z,85.00
2019-04-14T17:31:10.738Z,85.20
2019-04-14T17:34:16.832Z,85.00
2019-04-14T17:37:38.722Z,85.00
2019-04-14T17:40:44.823Z,85.80
2019-04-14T17:44:06.720Z,87.40
2019-04-14T17:47:10.941Z,89.90
2019-04-14T17:50:21.285Z,90.50
2019-04-14T17:53:30.192Z,90.90
2019-04-14T17:56:38.963Z,91.40
2019-04-14T17:59:47.760Z,91.50
2019-04-14T18:02:52.289Z,91.80
2019-04-14T18:06:01.081Z,91.80
2019-04-14T18:09:09.093Z,92.10
2019-04-14T18:12:27.165Z,92.60
2019-04-14T18:15:36.202Z,92.60
2019-04-14T18:18:50.716Z,92.30
2019-04-14T18:21:55.154Z,92.30
2019-04-14T18:24:59.660Z,93.60
2019-04-14T18:28:08.399Z,93.60
2019-04-14T18:31:26.486Z,93.20
2019-04-14T18:34:35.300Z,93.70
2019-04-14T18:37:57.760Z,94.10
2019-04-14T18:41:03.836Z,94.30
2019-04-14T18:44:26.761Z,94.40
2019-04-14T18:47:49.081Z,94.90
2019-04-14T18:51:04.193Z,94.90
2019-04-14T18:54:10.548Z,95.40
2019-04-14T18:57:22.565Z,95.40
2019-04-14T19:00:37.562Z,95.70
2019-04-14T19:03:42.006Z,95.90
2019-04-14T19:06:46.779Z,96.10
2019-04-14T19:09:51.219Z,96.50
2019-04-14T19:13:00.000Z,96.60
2019-04-14T19:16:06.958Z,96.60
2019-04-14T19:19:12.359Z,97.10
2019-04-14T19:22:17.091Z,96.90
2019-04-14T19:25:21.526Z,96.90
2019-04-14T19:28:25.965Z,97.00
2019-04-14T19:31:30.467Z,97.00
2019-04-14T19:34:35.195Z,97.10
2019-04-14T19:37:39.634Z,97.20
2019-04-14T19:40:44.069Z,97.40
2019-04-14T19:43:48.508Z,97.40
2019-04-14T19:46:53.194Z,97.30
2019-04-14T19:49:57.637Z,97.40
2019-04-14T19:53:02.082Z,97.20
2019-04-14T19:56:06.513Z,97.50
2019-04-14T19:59:10.954Z,97.40
2019-04-14T20:02:15.389Z,97.60
2019-04-14T20:05:19.825Z,97.40
2019-04-14T20:08:24.293Z,97.70
2019-04-14T20:11:28.796Z,97.60
2019-04-14T20:14:33.242Z,97.70
2019-04-14T20:17:42.145Z,97.60
2019-04-14T20:21:04.381Z,97.60
2019-04-14T20:24:08.906Z,97.90
2019-04-14T20:27:14.982Z,98.00
2019-04-14T20:30:29.761Z,98.00
2019-04-14T20:33:34.199Z,98.20
2019-04-14T20:36:38.628Z,98.20
2019-04-14T20:39:43.067Z,98.20
2019-04-14T20:42:47.888Z,98.20
2019-04-14T20:45:52.364Z,98.20
2019-04-14T20:48:56.811Z,98.80
2019-04-14T20:52:01.242Z,98.80
2019-04-14T20:55:08.040Z,99.00
2019-04-14T20:58:12.465Z,98.90
2019-04-14T21:01:17.778Z,98.90
2019-04-14T21:04:26.506Z,99.50
2019-04-14T21:07:38.261Z,99.30
2019-04-14T21:10:59.091Z,99.40
2019-04-14T21:14:05.172Z,99.40
2019-04-14T21:17:16.677Z,99.60
2019-04-14T21:20:22.757Z,99.70
2019-04-14T21:23:29.618Z,99.90
2019-04-14T21:26:51.315Z,99.90
2019-04-14T21:29:57.391Z,99.90
2019-04-14T21:33:09.272Z,99.80
2019-04-14T21:36:13.799Z,99.90
2019-04-14T21:39:29.928Z,99.90
2019-04-14T21:42:34.354Z,99.90
2019-04-14T21:45:38.800Z,99.90
2019-04-14T21:48:43.225Z,99.90
2019-04-14T21:52:05.098Z,99.90
2019-04-14T21:55:10.075Z,99.90
2019-04-14T21:58:16.152Z,99.90
2019-04-14T22:01:42.900Z,99.90
2019-04-14T22:04:57.923Z,99.90
2019-04-14T22:08:16.247Z,99.90
2019-04-14T22:11:22.567Z,99.90
2019-04-14T22:14:27.264Z,99.90
2019-04-14T22:17:31.698Z,99.90
2019-04-14T22:20:36.135Z,99.90
2019-04-14T22:23:40.565Z,99.90
2019-04-14T22:26:45.263Z,99.90
2019-04-14T22:29:49.688Z,99.90
2019-04-14T22:32:54.123Z,99.90
2019-04-14T22:35:58.562Z,99.90
2019-04-14T22:39:04.630Z,99.90
2019-04-14T22:42:09.530Z,99.90
2019-04-14T22:45:14.030Z,99.90
2019-04-14T22:48:18.465Z,99.90
2019-04-14T22:51:22.899Z,99.90
2019-04-14T22:54:27.637Z,99.90
2019-04-14T22:57:32.098Z,99.90
2019-04-14T23:00:38.227Z,99.90
2019-04-14T23:03:56.548Z,99.90
2019-04-14T23:07:03.475Z,99.90
2019-04-14T23:10:21.978Z,99.90
2019-04-14T23:13:37.049Z,99.90
2019-04-14T23:16:59.239Z,99.90
2019-04-14T23:20:25.154Z,99.90
2019-04-14T23:23:43.292Z,99.90
2019-04-14T23:26:52.774Z,99.90
2019-04-14T23:29:54.388Z,99.90
2019-04-14T23:32:58.904Z,99.90
2019-04-14T23:36:03.411Z,99.90
2019-04-14T23:39:09.790Z,99.90
2019-04-14T23:42:14.648Z,99.90
2019-04-14T23:45:19.147Z,99.90
2019-04-14T23:48:23.603Z,99.90
2019-04-14T23:51:28.040Z,99.90
2019-04-14T23:54:32.765Z,99.90
2019-04-14T23:57:37.202Z,99.90
